SAS572 EHAM-EKCH
Flight info
| Callsign | SAS572 |
|---|---|
| Flight time | N/A |
| Altitude | 35000 |
| Route | ANDIK N873 JUIST DCT ROCZO DCT DOSUR DCT TALSA P729 TUDLO |
| Aircraft | A320/M-SDE3FGHIRWY/LB1 |
Departure
| Time | N/A |
|---|---|
| Airport | Amsterdam Airport Schiphol (EHAM) |
Arrival
| Time | 2026-04-24 19:45 |
|---|---|
| Airport | Copenhagen Kastrup Airport (EKCH) |
| Time | Latitude | Longitude | Altitude | Speed | Heading |
|---|---|---|---|---|---|
| 2026-04-24 18:54 | 52.61883 | 5.01752 | 13245 ft | 350 kts | 50° |
| 2026-04-24 18:55 | 52.64941 | 5.08107 | 14545 ft | 358 kts | 50° |
| 2026-04-24 18:55 | 52.66486 | 5.11340 | 15131 ft | 361 kts | 50° |
| 2026-04-24 18:55 | 52.68047 | 5.14615 | 15708 ft | 365 kts | 50° |
| 2026-04-24 18:56 | 52.69625 | 5.17928 | 16288 ft | 369 kts | 50° |
| 2026-04-24 18:56 | 52.71212 | 5.21270 | 16869 ft | 372 kts | 50° |
| 2026-04-24 18:56 | 52.72817 | 5.24654 | 17445 ft | 376 kts | 50° |
| 2026-04-24 18:56 | 52.74434 | 5.28070 | 18022 ft | 380 kts | 50° |
| 2026-04-24 18:57 | 52.76070 | 5.31522 | 18600 ft | 384 kts | 50° |
| 2026-04-24 18:57 | 52.77720 | 5.35009 | 19121 ft | 387 kts | 50° |
| 2026-04-24 18:57 | 52.79387 | 5.38536 | 19655 ft | 391 kts | 50° |
| 2026-04-24 18:57 | 52.81066 | 5.42098 | 20189 ft | 394 kts | 50° |
| 2026-04-24 18:58 | 52.82760 | 5.45695 | 20725 ft | 398 kts | 51° |
| 2026-04-24 18:58 | 52.84464 | 5.49323 | 21230 ft | 402 kts | 51° |
| 2026-04-24 18:58 | 52.86187 | 5.52994 | 21736 ft | 405 kts | 51° |
| 2026-04-24 18:58 | 52.87923 | 5.56693 | 22233 ft | 409 kts | 51° |
| 2026-04-24 18:59 | 52.89677 | 5.60433 | 22731 ft | 412 kts | 51° |
| 2026-04-24 18:59 | 52.91419 | 5.64156 | 23218 ft | 416 kts | 51° |
| 2026-04-24 18:59 | 52.93197 | 5.67969 | 23711 ft | 419 kts | 51° |
| 2026-04-24 18:59 | 52.94985 | 5.71813 | 24130 ft | 423 kts | 51° |
| 2026-04-24 19:00 | 52.96811 | 5.75743 | 24521 ft | 427 kts | 51° |
| 2026-04-24 19:00 | 52.98608 | 5.79613 | 24882 ft | 430 kts | 51° |
| 2026-04-24 19:00 | 53.00443 | 5.83571 | 25254 ft | 434 kts | 51° |
| 2026-04-24 19:00 | 53.02292 | 5.87565 | 25612 ft | 438 kts | 51° |
| 2026-04-24 19:01 | 53.04152 | 5.91590 | 25963 ft | 441 kts | 51° |
| 2026-04-24 19:01 | 53.06026 | 5.95655 | 26318 ft | 445 kts | 51° |
| 2026-04-24 19:01 | 53.07911 | 5.99758 | 26670 ft | 448 kts | 51° |
| 2026-04-24 19:01 | 53.09808 | 6.03890 | 27016 ft | 451 kts | 50° |
| 2026-04-24 19:02 | 53.11100 | 6.06703 | 27247 ft | 453 kts | 50° |
| 2026-04-24 19:02 | 53.13646 | 6.12243 | 27704 ft | 457 kts | 50° |
| 2026-04-24 19:02 | 53.15585 | 6.16468 | 28044 ft | 460 kts | 50° |
| 2026-04-24 19:02 | 53.17528 | 6.20719 | 28377 ft | 463 kts | 50° |
| 2026-04-24 19:03 | 53.19523 | 6.24954 | 28731 ft | 465 kts | 48° |
| 2026-04-24 19:03 | 53.21601 | 6.29101 | 29069 ft | 467 kts | 47° |
| 2026-04-24 19:03 | 53.23734 | 6.33194 | 29408 ft | 469 kts | 46° |
| 2026-04-24 19:03 | 53.25906 | 6.37293 | 29751 ft | 472 kts | 46° |
| 2026-04-24 19:04 | 53.28082 | 6.41401 | 30088 ft | 474 kts | 46° |
| 2026-04-24 19:04 | 53.30262 | 6.45556 | 30406 ft | 477 kts | 46° |
| 2026-04-24 19:04 | 53.32436 | 6.49757 | 30685 ft | 479 kts | 46° |
| 2026-04-24 19:04 | 53.34604 | 6.54002 | 31055 ft | 479 kts | 47° |
| 2026-04-24 19:05 | 53.36755 | 6.58251 | 31467 ft | 478 kts | 47° |
| 2026-04-24 19:05 | 53.38896 | 6.62499 | 31871 ft | 477 kts | 47° |
| 2026-04-24 19:05 | 53.41041 | 6.66758 | 32270 ft | 477 kts | 47° |
| 2026-04-24 19:05 | 53.43179 | 6.70993 | 32666 ft | 477 kts | 46° |
| 2026-04-24 19:06 | 53.45322 | 6.75232 | 33051 ft | 476 kts | 46° |
| 2026-04-24 19:06 | 53.46744 | 6.78044 | 33312 ft | 476 kts | 46° |
| 2026-04-24 19:06 | 53.48888 | 6.82288 | 33699 ft | 477 kts | 46° |
| 2026-04-24 19:06 | 53.51030 | 6.86537 | 34078 ft | 477 kts | 46° |
| 2026-04-24 19:07 | 53.53170 | 6.90792 | 34415 ft | 477 kts | 46° |
| 2026-04-24 19:07 | 53.55313 | 6.95057 | 34757 ft | 476 kts | 46° |
| 2026-04-24 19:07 | 53.57446 | 6.99303 | 35105 ft | 475 kts | 46° |
| 2026-04-24 19:07 | 53.59576 | 7.03552 | 35219 ft | 474 kts | 47° |
| 2026-04-24 19:08 | 53.61704 | 7.07808 | 35239 ft | 474 kts | 47° |
| 2026-04-24 19:08 | 53.65930 | 7.16305 | 35230 ft | 473 kts | 47° |
| 2026-04-24 19:09 | 53.70146 | 7.24797 | 35221 ft | 471 kts | 47° |
| 2026-04-24 19:09 | 53.74346 | 7.33272 | 35216 ft | 470 kts | 47° |
| 2026-04-24 19:10 | 53.78532 | 7.41760 | 35219 ft | 469 kts | 47° |
| 2026-04-24 19:10 | 53.82698 | 7.50248 | 35224 ft | 469 kts | 47° |
| 2026-04-24 19:11 | 53.86860 | 7.58746 | 35227 ft | 468 kts | 47° |
| 2026-04-24 19:11 | 53.90987 | 7.67193 | 35230 ft | 468 kts | 47° |
| 2026-04-24 19:12 | 53.95127 | 7.75698 | 35229 ft | 467 kts | 48° |
| 2026-04-24 19:12 | 53.99251 | 7.84203 | 35229 ft | 466 kts | 48° |
| 2026-04-24 19:13 | 54.02667 | 7.91275 | 35230 ft | 465 kts | 48° |
| 2026-04-24 19:13 | 54.07452 | 8.01226 | 35221 ft | 464 kts | 48° |
| 2026-04-24 19:14 | 54.11532 | 8.09736 | 35216 ft | 463 kts | 48° |
| 2026-04-24 19:14 | 54.15602 | 8.18232 | 35213 ft | 462 kts | 49° |
| 2026-04-24 19:15 | 54.19537 | 8.26497 | 35209 ft | 461 kts | 49° |
| 2026-04-24 19:15 | 54.23576 | 8.35005 | 35200 ft | 460 kts | 49° |
| 2026-04-24 19:16 | 54.29610 | 8.47748 | 35197 ft | 459 kts | 49° |
| 2026-04-24 19:16 | 54.33608 | 8.56255 | 35189 ft | 458 kts | 49° |
| 2026-04-24 19:17 | 54.37597 | 8.64763 | 35180 ft | 457 kts | 49° |
| 2026-04-24 19:17 | 54.41579 | 8.73274 | 35175 ft | 457 kts | 49° |
| 2026-04-24 19:18 | 54.45550 | 8.81783 | 35172 ft | 456 kts | 49° |
| 2026-04-24 19:18 | 54.49488 | 8.90243 | 35169 ft | 456 kts | 49° |
| 2026-04-24 19:19 | 54.53438 | 8.98785 | 35159 ft | 455 kts | 49° |
| 2026-04-24 19:19 | 54.57371 | 9.07329 | 35145 ft | 455 kts | 49° |
| 2026-04-24 19:20 | 54.61325 | 9.15940 | 35146 ft | 454 kts | 49° |
| 2026-04-24 19:20 | 54.65240 | 9.24494 | 35140 ft | 454 kts | 49° |
| 2026-04-24 19:21 | 54.69126 | 9.33002 | 35133 ft | 454 kts | 49° |
| 2026-04-24 19:21 | 54.73030 | 9.41578 | 35030 ft | 454 kts | 49° |
| 2026-04-24 19:22 | 54.74348 | 9.44481 | 34859 ft | 453 kts | 49° |
| 2026-04-24 19:22 | 54.76632 | 9.50523 | 34537 ft | 454 kts | 58° |
| 2026-04-24 19:22 | 54.78201 | 9.55262 | 34292 ft | 452 kts | 58° |
| 2026-04-24 19:22 | 54.79760 | 9.59975 | 34045 ft | 450 kts | 58° |
| 2026-04-24 19:23 | 54.81309 | 9.64671 | 33753 ft | 447 kts | 58° |
| 2026-04-24 19:23 | 54.82843 | 9.69339 | 33249 ft | 444 kts | 58° |
| 2026-04-24 19:23 | 54.84362 | 9.73974 | 32742 ft | 441 kts | 58° |
| 2026-04-24 19:23 | 54.85872 | 9.78592 | 32235 ft | 438 kts | 57° |
| 2026-04-24 19:24 | 54.87370 | 9.83185 | 31727 ft | 435 kts | 57° |
| 2026-04-24 19:24 | 54.88857 | 9.87750 | 31234 ft | 433 kts | 57° |
| 2026-04-24 19:24 | 54.90335 | 9.92298 | 30737 ft | 432 kts | 57° |
| 2026-04-24 19:24 | 54.91808 | 9.96833 | 30237 ft | 430 kts | 57° |
| 2026-04-24 19:25 | 54.93251 | 10.01390 | 29678 ft | 429 kts | 59° |
| 2026-04-24 19:25 | 54.94587 | 10.06042 | 29118 ft | 428 kts | 61° |
| 2026-04-24 19:25 | 54.95831 | 10.10741 | 28572 ft | 427 kts | 63° |
| 2026-04-24 19:25 | 54.97027 | 10.15462 | 28029 ft | 425 kts | 63° |
| 2026-04-24 19:26 | 54.98208 | 10.20171 | 27497 ft | 424 kts | 63° |
| 2026-04-24 19:26 | 54.99394 | 10.24864 | 26790 ft | 425 kts | 62° |
| 2026-04-24 19:26 | 55.00599 | 10.29549 | 25827 ft | 422 kts | 62° |
| 2026-04-24 19:26 | 55.01806 | 10.34177 | 24978 ft | 417 kts | 62° |
| 2026-04-24 19:27 | 55.02993 | 10.38700 | 24493 ft | 403 kts | 61° |
| 2026-04-24 19:27 | 55.04140 | 10.43072 | 24060 ft | 390 kts | 61° |
| 2026-04-24 19:27 | 55.05248 | 10.47303 | 23606 ft | 378 kts | 61° |
| 2026-04-24 19:27 | 55.06320 | 10.51409 | 23135 ft | 365 kts | 61° |
| 2026-04-24 19:28 | 55.07353 | 10.55380 | 22708 ft | 353 kts | 61° |
| 2026-04-24 19:28 | 55.08355 | 10.59243 | 22292 ft | 350 kts | 60° |
| 2026-04-24 19:28 | 55.09362 | 10.63119 | 21874 ft | 351 kts | 60° |
| 2026-04-24 19:28 | 55.10354 | 10.66946 | 21445 ft | 350 kts | 60° |
| 2026-04-24 19:29 | 55.12358 | 10.74706 | 20587 ft | 350 kts | 60° |
| 2026-04-24 19:29 | 55.13358 | 10.78578 | 20148 ft | 350 kts | 60° |
| 2026-04-24 19:29 | 55.14362 | 10.82473 | 19715 ft | 351 kts | 60° |
| 2026-04-24 19:30 | 55.15362 | 10.86372 | 19282 ft | 352 kts | 60° |
| 2026-04-24 19:30 | 55.16361 | 10.90288 | 18841 ft | 352 kts | 60° |
| 2026-04-24 19:30 | 55.17359 | 10.94208 | 18397 ft | 353 kts | 60° |
| 2026-04-24 19:30 | 55.18358 | 10.98139 | 17912 ft | 354 kts | 60° |
| 2026-04-24 19:31 | 55.19353 | 11.02068 | 17464 ft | 353 kts | 60° |
| 2026-04-24 19:31 | 55.20347 | 11.05990 | 17022 ft | 352 kts | 60° |
| 2026-04-24 19:31 | 55.21336 | 11.09896 | 16573 ft | 350 kts | 60° |
| 2026-04-24 19:31 | 55.22324 | 11.13795 | 16138 ft | 349 kts | 60° |
| 2026-04-24 19:32 | 55.23306 | 11.17676 | 15699 ft | 348 kts | 60° |
| 2026-04-24 19:32 | 55.24283 | 11.21554 | 15252 ft | 348 kts | 60° |
| 2026-04-24 19:32 | 55.25259 | 11.25432 | 14822 ft | 347 kts | 60° |
| 2026-04-24 19:32 | 55.26229 | 11.29296 | 14377 ft | 346 kts | 60° |
| 2026-04-24 19:33 | 55.27198 | 11.33150 | 13944 ft | 345 kts | 60° |
| 2026-04-24 19:33 | 55.28167 | 11.37001 | 13471 ft | 344 kts | 60° |
| 2026-04-24 19:33 | 55.29129 | 11.40838 | 13039 ft | 342 kts | 60° |
| 2026-04-24 19:33 | 55.30081 | 11.44648 | 12615 ft | 340 kts | 60° |
| 2026-04-24 19:34 | 55.31024 | 11.48436 | 12185 ft | 338 kts | 61° |
| 2026-04-24 19:34 | 55.31792 | 11.52285 | 12068 ft | 329 kts | 66° |
| 2026-04-24 19:34 | 55.32446 | 11.56003 | 11989 ft | 317 kts | 67° |
| 2026-04-24 19:34 | 55.33072 | 11.59690 | 11691 ft | 314 kts | 68° |
| 2026-04-24 19:35 | 55.33693 | 11.63370 | 11307 ft | 314 kts | 68° |
| 2026-04-24 19:35 | 55.34315 | 11.67048 | 10913 ft | 314 kts | 68° |
| 2026-04-24 19:35 | 55.34939 | 11.70729 | 10513 ft | 314 kts | 68° |
| 2026-04-24 19:35 | 55.35563 | 11.74409 | 10128 ft | 314 kts | 68° |
| 2026-04-24 19:36 | 55.36177 | 11.78040 | 9971 ft | 306 kts | 68° |
| 2026-04-24 19:36 | 55.36777 | 11.81602 | 9608 ft | 304 kts | 68° |
| 2026-04-24 19:36 | 55.37377 | 11.85154 | 9299 ft | 301 kts | 68° |
| 2026-04-24 19:36 | 55.37971 | 11.88666 | 8948 ft | 299 kts | 68° |
| 2026-04-24 19:37 | 55.38566 | 11.92173 | 8586 ft | 298 kts | 68° |
| 2026-04-24 19:37 | 55.39156 | 11.95654 | 8240 ft | 297 kts | 68° |
| 2026-04-24 19:37 | 55.39739 | 11.99115 | 8007 ft | 292 kts | 68° |
| 2026-04-24 19:37 | 55.40311 | 12.02534 | 7637 ft | 292 kts | 68° |
| 2026-04-24 19:38 | 55.40885 | 12.05967 | 7279 ft | 292 kts | 69° |
| 2026-04-24 19:38 | 55.41457 | 12.09394 | 6953 ft | 291 kts | 69° |
| 2026-04-24 19:38 | 55.42025 | 12.12799 | 6602 ft | 288 kts | 69° |
| 2026-04-24 19:38 | 55.42585 | 12.16165 | 5996 ft | 286 kts | 69° |
| 2026-04-24 19:39 | 55.43141 | 12.19507 | 5382 ft | 283 kts | 69° |
| 2026-04-24 19:39 | 55.43691 | 12.22825 | 4713 ft | 284 kts | 70° |
| 2026-04-24 19:39 | 55.44247 | 12.26187 | 3971 ft | 286 kts | 71° |
| 2026-04-24 19:39 | 55.44787 | 12.29478 | 3674 ft | 271 kts | 71° |
| 2026-04-24 19:40 | 55.45288 | 12.32559 | 3546 ft | 252 kts | 71° |
| 2026-04-24 19:40 | 55.45754 | 12.35410 | 3436 ft | 233 kts | 71° |
| 2026-04-24 19:40 | 55.46186 | 12.38042 | 3336 ft | 224 kts | 71° |
| 2026-04-24 19:40 | 55.46712 | 12.40585 | 3272 ft | 220 kts | 56° |
| 2026-04-24 19:41 | 55.47667 | 12.42610 | 3055 ft | 211 kts | 36° |
| 2026-04-24 19:41 | 55.48775 | 12.44299 | 2786 ft | 210 kts | 36° |
| 2026-04-24 19:41 | 55.49879 | 12.45984 | 2504 ft | 209 kts | 36° |
| 2026-04-24 19:41 | 55.50962 | 12.47646 | 2266 ft | 202 kts | 36° |
| 2026-04-24 19:42 | 55.51989 | 12.49224 | 1965 ft | 193 kts | 36° |
| 2026-04-24 19:42 | 55.52975 | 12.50740 | 1703 ft | 183 kts | 36° |
| 2026-04-24 19:42 | 55.53900 | 12.52163 | 1457 ft | 169 kts | 36° |
| 2026-04-24 19:42 | 55.54744 | 12.53462 | 1249 ft | 155 kts | 37° |
| 2026-04-24 19:43 | 55.55541 | 12.54691 | 1037 ft | 150 kts | 37° |
| 2026-04-24 19:43 | 55.56313 | 12.55897 | 827 ft | 147 kts | 38° |
| 2026-04-24 19:43 | 55.57082 | 12.57062 | 646 ft | 146 kts | 37° |
| 2026-04-24 19:43 | 55.57854 | 12.58211 | 438 ft | 144 kts | 40° |
| 2026-04-24 19:44 | 55.58604 | 12.59397 | 221 ft | 145 kts | 38° |
| 2026-04-24 19:44 | 55.59351 | 12.60546 | 49 ft | 143 kts | 39° |
| 2026-04-24 19:44 | 55.60031 | 12.61599 | 25 ft | 111 kts | 41° |
| 2026-04-24 19:44 | 55.60482 | 12.62300 | 25 ft | 62 kts | 41° |
| 2026-04-24 19:45 | 55.60715 | 12.62653 | 31 ft | 39 kts | 39° |
| 2026-04-24 19:45 | 55.60901 | 12.62841 | 26 ft | 21 kts | 14° |
| 2026-04-24 19:45 | 55.61026 | 12.62888 | 24 ft | 18 kts | 11° |
| 2026-04-24 19:45 | 55.61151 | 12.62959 | 24 ft | 20 kts | 32° |
| 2026-04-24 19:46 | 55.61263 | 12.63129 | 24 ft | 23 kts | 41° |
| 2026-04-24 19:46 | 55.61388 | 12.63322 | 25 ft | 25 kts | 41° |
| 2026-04-24 19:46 | 55.61525 | 12.63535 | 26 ft | 27 kts | 41° |
| 2026-04-24 19:46 | 55.61646 | 12.63723 | 24 ft | 24 kts | 41° |
| 2026-04-24 19:47 | 55.61778 | 12.63927 | 24 ft | 27 kts | 41° |
| 2026-04-24 19:47 | 55.61892 | 12.64087 | 25 ft | 21 kts | 30° |
| 2026-04-24 19:47 | 55.62010 | 12.64186 | 24 ft | 16 kts | 26° |
| 2026-04-24 19:47 | 55.62122 | 12.64281 | 25 ft | 19 kts | 25° |
| 2026-04-24 19:48 | 55.62231 | 12.64369 | 24 ft | 18 kts | 22° |
| 2026-04-24 19:48 | 55.62357 | 12.64433 | 24 ft | 20 kts | 15° |
| 2026-04-24 19:48 | 55.62489 | 12.64659 | 24 ft | 12 kts | 10° |
| 2026-04-24 19:49 | 55.62635 | 12.64652 | 24 ft | 4 kts | 322° |
| 2026-04-24 19:49 | 55.62648 | 12.64554 | 24 ft | 0 kts | 281° |